Time;durP1;ratioP1;P1;durP2;ratioP2;P2;SDS_P1;SDS_P2;PMS_P1;PMS_P2;Temp;Humidity;BMP_temperature;BMP_pressure;BME280_temperature;BME280_humidity;BME280_pressure;Samples;Min_cycle;Max_cycle;Signal;HPM_P1;HPM_P2
2024/03/10 00:00:40;;;;;;;;;1.00;0.00;;;;;;;;4928431;28;45384;-66
2024/03/10 00:03:08;;;;;;;;;2.00;2.00;;;;;;;;4921183;28;45363;-66
2024/03/10 00:05:34;;;;;;;;;1.00;1.00;;;;;;;;4934147;28;45292;-66
2024/03/10 00:07:59;;;;;;;;;1.00;1.00;;;;;;;;4928629;28;45324;-66
2024/03/10 00:10:24;;;;;;;;;2.00;2.00;;;;;;;;4929821;28;45331;-66
2024/03/10 00:12:50;;;;;;;;;1.75;1.75;;;;;;;;4929039;28;45295;-66
2024/03/10 00:15:15;;;;;;;;;2.00;2.00;;;;;;;;4931390;28;45330;-66
2024/03/10 00:17:41;;;;;;;;;1.25;1.25;;;;;;;;4927355;28;45212;-66
2024/03/10 00:20:08;;;;;;;;;3.00;1.00;;;;;;;;4933334;28;46331;-66
2024/03/10 00:22:33;;;;;;;;;1.75;1.00;;;;;;;;4923112;28;45652;-66
2024/03/10 00:24:58;;;;;;;;;1.00;1.00;;;;;;;;4933588;28;45367;-66
2024/03/10 00:27:24;;;;;;;;;1.00;1.00;;;;;;;;4927872;28;45223;-66
2024/03/10 00:29:49;;;;;;;;;1.00;1.00;;;;;;;;4930308;28;46387;-66
2024/03/10 00:32:14;;;;;;;;;1.25;1.25;;;;;;;;4926011;28;45368;-66
2024/03/10 00:34:39;;;;;;;;;1.50;0.50;;;;;;;;4928844;28;45531;-66
2024/03/10 00:37:05;;;;;;;;;1.50;1.50;;;;;;;;4920307;28;45558;-66
2024/03/10 00:39:31;;;;;;;;;2.00;2.00;;;;;;;;4924879;28;46922;-66
2024/03/10 00:41:56;;;;;;;;;1.25;1.25;;;;;;;;4929217;28;45331;-66
2024/03/10 00:44:21;;;;;;;;;1.33;1.33;;;;;;;;4929913;28;45510;-66
2024/03/10 00:46:47;;;;;;;;;4.33;3.00;;;;;;;;4928150;28;45315;-66
2024/03/10 00:49:14;;;;;;;;;5.00;3.00;;;;;;;;4931740;28;45453;-66
2024/03/10 00:51:41;;;;;;;;;1.25;1.25;;;;;;;;4919140;28;45329;-66
2024/03/10 00:54:06;;;;;;;;;3.00;3.00;;;;;;;;4932779;28;45280;-66
2024/03/10 00:56:31;;;;;;;;;3.75;3.75;;;;;;;;4928874;28;45520;-66
2024/03/10 00:58:56;;;;;;;;;3.00;3.00;;;;;;;;4923621;28;45922;-66
2024/03/10 01:01:22;;;;;;;;;5.00;5.00;;;;;;;;4934930;28;45252;-66
2024/03/10 01:03:47;;;;;;;;;4.67;4.67;;;;;;;;4927029;28;45275;-66
2024/03/10 01:06:12;;;;;;;;;3.00;3.00;;;;;;;;4928219;28;45517;-66
2024/03/10 01:08:38;;;;;;;;;4.00;4.00;;;;;;;;4931470;28;45616;-66
2024/03/10 01:11:03;;;;;;;;;3.25;3.25;;;;;;;;4926407;28;45478;-66
2024/03/10 01:13:29;;;;;;;;;5.50;3.50;;;;;;;;4930971;28;45457;-66
2024/03/10 01:15:54;;;;;;;;;4.50;3.50;;;;;;;;4923848;28;45431;-66
2024/03/10 01:18:20;;;;;;;;;4.00;3.50;;;;;;;;4930179;28;46179;-66
2024/03/10 01:20:46;;;;;;;;;4.00;4.00;;;;;;;;4927890;28;45607;-66
2024/03/10 01:23:11;;;;;;;;;3.50;3.00;;;;;;;;4931916;28;45453;-66
2024/03/10 01:25:36;;;;;;;;;3.00;3.00;;;;;;;;4928527;28;45434;-66
2024/03/10 01:28:01;;;;;;;;;4.00;3.00;;;;;;;;4931745;28;46752;-66
2024/03/10 01:30:26;;;;;;;;;2.67;2.33;;;;;;;;4924682;28;45552;-66
2024/03/10 01:32:52;;;;;;;;;3.00;3.00;;;;;;;;4928385;28;45500;-66
2024/03/10 01:35:17;;;;;;;;;5.00;4.00;;;;;;;;4926591;28;45489;-66
2024/03/10 01:37:42;;;;;;;;;2.67;2.00;;;;;;;;4917883;28;46396;-66
2024/03/10 01:40:09;;;;;;;;;2.00;2.00;;;;;;;;4927216;28;45446;-66
2024/03/10 01:42:34;;;;;;;;;2.00;2.00;;;;;;;;4932299;28;45345;-66
2024/03/10 01:45:00;;;;;;;;;5.00;4.00;;;;;;;;4936022;28;45376;-66
2024/03/10 01:47:25;;;;;;;;;2.75;1.75;;;;;;;;4932510;28;46018;-66
2024/03/10 01:49:52;;;;;;;;;2.00;2.00;;;;;;;;4932408;28;45441;-66
2024/03/10 01:52:17;;;;;;;;;1.00;1.00;;;;;;;;4934678;28;45429;-66
2024/03/10 01:54:43;;;;;;;;;1.00;1.00;;;;;;;;4933895;28;45407;-66
2024/03/10 01:57:08;;;;;;;;;0.25;0.25;;;;;;;;4928803;28;47075;-66
2024/03/10 01:59:34;;;;;;;;;0.25;0.25;;;;;;;;4934971;28;45643;-66
2024/03/10 02:01:59;;;;;;;;;0.00;0.00;;;;;;;;4927025;28;45404;-66
2024/03/10 02:04:26;;;;;;;;;0.00;0.00;;;;;;;;4933108;28;45577;-66
2024/03/10 02:06:53;;;;;;;;;0.00;0.00;;;;;;;;4931638;28;46339;-66
2024/03/10 02:09:18;;;;;;;;;1.00;1.00;;;;;;;;4933781;28;45313;-66
2024/03/10 02:11:44;;;;;;;;;0.00;0.00;;;;;;;;4931854;28;45426;-66
2024/03/10 02:14:09;;;;;;;;;0.00;0.00;;;;;;;;4923020;28;45541;-66
2024/03/10 02:16:34;;;;;;;;;0.00;0.00;;;;;;;;4924977;28;46238;-66
2024/03/10 02:19:00;;;;;;;;;0.00;0.00;;;;;;;;4926089;28;45350;-66
2024/03/10 02:21:27;;;;;;;;;0.25;0.25;;;;;;;;4929922;28;45387;-66
2024/03/10 02:23:58;;;;;;;;;1.25;1.00;;;;;;;;4927903;28;45462;-66
2024/03/10 02:26:28;;;;;;;;;1.00;1.00;;;;;;;;4931616;28;46984;-66
2024/03/10 02:29:04;;;;;;;;;0.00;0.00;;;;;;;;4916451;28;45692;-66
2024/03/10 02:47:53;;;;;;;;;2.75;1.25;;;;;;;;4926257;28;45455;-66
2024/03/10 02:50:20;;;;;;;;;1.00;1.00;;;;;;;;4921631;28;45300;-66
2024/03/10 02:52:46;;;;;;;;;2.75;2.25;;;;;;;;4921423;28;45622;-66
2024/03/10 02:55:11;;;;;;;;;6.00;3.75;;;;;;;;4927011;28;45438;-66
2024/03/10 02:57:37;;;;;;;;;5.67;5.00;;;;;;;;4930776;28;46138;-66
2024/03/10 03:00:03;;;;;;;;;5.50;4.50;;;;;;;;4918371;28;45553;-66
2024/03/10 03:02:29;;;;;;;;;4.25;4.25;;;;;;;;4929856;28;45433;-66
2024/03/10 03:04:54;;;;;;;;;6.75;6.00;;;;;;;;4929189;28;45528;-66
2024/03/10 03:07:19;;;;;;;;;2.00;2.00;;;;;;;;4934613;28;46195;-66
2024/03/10 03:09:45;;;;;;;;;1.00;1.00;;;;;;;;4926085;28;45643;-66
2024/03/10 03:12:11;;;;;;;;;1.00;0.00;;;;;;;;4927254;28;45453;-66
2024/03/10 03:14:36;;;;;;;;;1.33;1.33;;;;;;;;4929324;28;45447;-66
2024/03/10 03:17:05;;;;;;;;;2.00;2.00;;;;;;;;4927733;28;46010;-66
2024/03/10 03:19:32;;;;;;;;;8.00;8.00;;;;;;;;4929530;28;45335;-66
2024/03/10 03:21:57;;;;;;;;;8.00;6.25;;;;;;;;4933389;28;45548;-66
2024/03/10 03:24:23;;;;;;;;;1.33;1.33;;;;;;;;4933103;28;45449;-66
2024/03/10 03:26:48;;;;;;;;;3.00;3.00;;;;;;;;4933557;28;45350;-66
2024/03/10 03:29:13;;;;;;;;;1.33;1.33;;;;;;;;4928727;28;45480;-66
2024/03/10 03:31:38;;;;;;;;;0.00;0.00;;;;;;;;4928632;28;45370;-66
2024/03/10 03:34:03;;;;;;;;;0.33;0.33;;;;;;;;4927564;28;45299;-66
2024/03/10 03:36:29;;;;;;;;;0.00;0.00;;;;;;;;4930783;28;46425;-66
2024/03/10 03:38:55;;;;;;;;;1.00;1.00;;;;;;;;4919326;28;45503;-66
2024/03/10 03:41:20;;;;;;;;;0.00;0.00;;;;;;;;4934556;28;45406;-66
2024/03/10 03:43:45;;;;;;;;;0.00;0.00;;;;;;;;4928861;28;45367;-66
2024/03/10 03:46:11;;;;;;;;;0.00;0.00;;;;;;;;4934742;28;45373;-66
2024/03/10 03:48:38;;;;;;;;;0.00;0.00;;;;;;;;4929257;28;45372;-66
2024/03/10 03:51:05;;;;;;;;;0.00;0.00;;;;;;;;4924644;28;45416;-66
2024/03/10 03:53:30;;;;;;;;;1.00;0.00;;;;;;;;4927751;28;45568;-66
2024/03/10 03:55:56;;;;;;;;;0.00;0.00;;;;;;;;4934312;28;45922;-66
2024/03/10 03:58:21;;;;;;;;;0.00;0.00;;;;;;;;4924812;28;45363;-66
2024/03/10 04:00:47;;;;;;;;;0.00;0.00;;;;;;;;4928861;28;45375;-66
2024/03/10 04:03:12;;;;;;;;;0.00;0.00;;;;;;;;4923903;28;45411;-66
2024/03/10 04:05:38;;;;;;;;;0.00;0.00;;;;;;;;4934042;28;46046;-66
2024/03/10 04:08:04;;;;;;;;;0.00;0.00;;;;;;;;4928436;28;45512;-66
2024/03/10 04:10:30;;;;;;;;;0.00;0.00;;;;;;;;4926007;28;45347;-66
2024/03/10 04:12:55;;;;;;;;;0.00;0.00;;;;;;;;4924306;28;45509;-66
2024/03/10 04:15:20;;;;;;;;;0.00;0.00;;;;;;;;4928892;28;45577;-66
2024/03/10 04:17:46;;;;;;;;;0.00;0.00;;;;;;;;4927284;28;45367;-66
2024/03/10 04:20:13;;;;;;;;;0.00;0.00;;;;;;;;4928900;28;45350;-66
2024/03/10 04:22:39;;;;;;;;;0.00;0.00;;;;;;;;4928778;28;45311;-66
2024/03/10 04:25:07;;;;;;;;;0.00;0.00;;;;;;;;4934011;28;46242;-66
2024/03/10 04:27:35;;;;;;;;;0.00;0.00;;;;;;;;4929526;28;45594;-66
2024/03/10 04:30:00;;;;;;;;;0.00;0.00;;;;;;;;4929962;28;45415;-66
2024/03/10 04:32:25;;;;;;;;;0.00;0.00;;;;;;;;4926688;28;45443;-66
2024/03/10 04:34:50;;;;;;;;;0.00;0.00;;;;;;;;4929527;28;46545;-66
2024/03/10 04:37:15;;;;;;;;;0.00;0.00;;;;;;;;4924724;28;45443;-66
2024/03/10 04:39:40;;;;;;;;;0.00;0.00;;;;;;;;4933702;28;45418;-66
2024/03/10 04:42:06;;;;;;;;;1.00;0.00;;;;;;;;4927394;28;45363;-66
2024/03/10 04:44:31;;;;;;;;;0.00;0.00;;;;;;;;4932620;28;45557;-66
2024/03/10 04:46:57;;;;;;;;;0.00;0.00;;;;;;;;4927924;28;45362;-66
2024/03/10 04:49:22;;;;;;;;;0.00;0.00;;;;;;;;4933237;28;45428;-66
2024/03/10 04:51:47;;;;;;;;;0.00;0.00;;;;;;;;4920862;28;45451;-66
2024/03/10 04:54:13;;;;;;;;;0.00;0.00;;;;;;;;4934059;28;46112;-66
2024/03/10 04:56:38;;;;;;;;;0.00;0.00;;;;;;;;4927698;28;45422;-66
2024/03/10 04:59:03;;;;;;;;;0.00;0.00;;;;;;;;4923256;28;45410;-66
2024/03/10 05:01:28;;;;;;;;;0.25;0.00;;;;;;;;4927710;28;45290;-67
2024/03/10 05:03:54;;;;;;;;;0.00;0.00;;;;;;;;4927852;28;46082;-66
2024/03/10 05:06:19;;;;;;;;;0.00;0.00;;;;;;;;4933558;28;45271;-66
2024/03/10 05:08:44;;;;;;;;;0.00;0.00;;;;;;;;4933869;28;45454;-66
2024/03/10 05:11:09;;;;;;;;;0.00;0.00;;;;;;;;4927658;28;45427;-66
2024/03/10 05:13:35;;;;;;;;;0.00;0.00;;;;;;;;4927057;28;46228;-66
2024/03/10 05:16:01;;;;;;;;;0.00;0.00;;;;;;;;4922285;28;45298;-66
2024/03/10 05:18:26;;;;;;;;;0.00;0.00;;;;;;;;4931380;28;45383;-66
2024/03/10 05:20:51;;;;;;;;;1.00;0.00;;;;;;;;4927614;28;45571;-66
2024/03/10 05:23:17;;;;;;;;;0.00;0.00;;;;;;;;4931906;28;46146;-66
2024/03/10 05:25:43;;;;;;;;;0.00;0.00;;;;;;;;4922666;28;45704;-66
2024/03/10 05:28:09;;;;;;;;;0.00;0.00;;;;;;;;4931047;28;45393;-66
2024/03/10 05:30:35;;;;;;;;;0.00;0.00;;;;;;;;4923536;28;45391;-66
2024/03/10 05:33:00;;;;;;;;;0.00;0.00;;;;;;;;4928123;28;46421;-66
2024/03/10 05:35:25;;;;;;;;;0.00;0.00;;;;;;;;4925365;28;45371;-66
2024/03/10 05:37:50;;;;;;;;;0.00;0.00;;;;;;;;4917817;28;45712;-66
2024/03/10 05:40:16;;;;;;;;;0.00;0.00;;;;;;;;4923388;28;45458;-66
2024/03/10 05:42:41;;;;;;;;;0.00;0.00;;;;;;;;4926220;28;45433;-66
2024/03/10 05:45:06;;;;;;;;;0.00;0.00;;;;;;;;4927725;28;45394;-66
2024/03/10 05:47:32;;;;;;;;;1.00;0.00;;;;;;;;4931545;28;45608;-66
2024/03/10 05:49:58;;;;;;;;;1.00;0.00;;;;;;;;4926993;28;45316;-66
2024/03/10 05:52:24;;;;;;;;;0.00;0.00;;;;;;;;4923390;28;45315;-66
2024/03/10 05:54:49;;;;;;;;;1.00;0.00;;;;;;;;4926278;28;45696;-66
2024/03/10 05:57:14;;;;;;;;;0.00;0.00;;;;;;;;4927421;28;45423;-66
2024/03/10 05:59:43;;;;;;;;;0.00;0.00;;;;;;;;4917846;28;45324;-66
2024/03/10 06:02:08;;;;;;;;;0.00;0.00;;;;;;;;4927184;28;45447;-66
2024/03/10 06:04:33;;;;;;;;;0.00;0.00;;;;;;;;4927554;28;45484;-66
2024/03/10 06:06:59;;;;;;;;;0.00;0.00;;;;;;;;4932400;28;45356;-66
2024/03/10 06:09:27;;;;;;;;;0.00;0.00;;;;;;;;4929402;28;45377;-66
2024/03/10 06:11:52;;;;;;;;;0.00;0.00;;;;;;;;4928731;28;46064;-66
2024/03/10 06:14:17;;;;;;;;;0.00;0.00;;;;;;;;4929036;28;45525;-66
2024/03/10 06:16:43;;;;;;;;;0.00;0.00;;;;;;;;4925805;28;45624;-66
2024/03/10 06:27:02;;;;;;;;;0.00;0.00;;;;;;;;4933410;28;45454;-66
2024/03/10 06:29:27;;;;;;;;;0.00;0.00;;;;;;;;4928235;28;45591;-66
2024/03/10 06:31:55;;;;;;;;;0.00;0.00;;;;;;;;4925156;28;46239;-66
2024/03/10 06:34:21;;;;;;;;;0.00;0.00;;;;;;;;4925882;28;45274;-66
2024/03/10 06:36:46;;;;;;;;;0.00;0.00;;;;;;;;4924723;28;45386;-66
2024/03/10 06:39:16;;;;;;;;;0.67;0.00;;;;;;;;4917726;28;45259;-66
2024/03/10 06:41:41;;;;;;;;;0.00;0.00;;;;;;;;4927369;28;46411;-66
2024/03/10 06:44:07;;;;;;;;;0.00;0.00;;;;;;;;4928854;28;45498;-66
2024/03/10 06:46:32;;;;;;;;;0.33;0.00;;;;;;;;4929894;28;45700;-66
2024/03/10 06:48:57;;;;;;;;;0.00;0.00;;;;;;;;4928592;28;45395;-66
2024/03/10 06:51:23;;;;;;;;;0.00;0.00;;;;;;;;4919770;28;46178;-66
2024/03/10 06:53:48;;;;;;;;;0.00;0.00;;;;;;;;4928554;28;45511;-66
2024/03/10 06:56:14;;;;;;;;;0.00;0.00;;;;;;;;4929330;28;45513;-66
2024/03/10 06:58:42;;;;;;;;;0.00;0.00;;;;;;;;4921361;28;45412;-66
2024/03/10 07:01:07;;;;;;;;;0.00;0.00;;;;;;;;4920868;28;46063;-66
2024/03/10 07:03:32;;;;;;;;;0.00;0.00;;;;;;;;4923634;28;45252;-66
2024/03/10 07:06:00;;;;;;;;;0.00;0.00;;;;;;;;4928680;28;45688;-66
2024/03/10 07:08:25;;;;;;;;;0.00;0.00;;;;;;;;4928031;28;46172;-66
2024/03/10 07:10:51;;;;;;;;;1.25;0.00;;;;;;;;4925756;28;45403;-66
2024/03/10 07:13:18;;;;;;;;;0.00;0.00;;;;;;;;4924961;28;45609;-66
2024/03/10 07:15:43;;;;;;;;;0.00;0.00;;;;;;;;4920948;28;45322;-67
2024/03/10 07:18:08;;;;;;;;;0.00;0.00;;;;;;;;4926358;28;45482;-66
2024/03/10 07:20:33;;;;;;;;;0.00;0.00;;;;;;;;4922580;28;45478;-66
2024/03/10 07:22:59;;;;;;;;;0.33;0.00;;;;;;;;4927660;28;45445;-66
2024/03/10 07:25:25;;;;;;;;;0.00;0.00;;;;;;;;4927321;28;45380;-66
2024/03/10 07:27:50;;;;;;;;;0.00;0.00;;;;;;;;4927478;28;45411;-66
2024/03/10 07:30:15;;;;;;;;;0.00;0.00;;;;;;;;4922170;28;45565;-66
2024/03/10 07:32:42;;;;;;;;;1.00;0.00;;;;;;;;4924659;28;45264;-66
2024/03/10 07:35:08;;;;;;;;;0.00;0.00;;;;;;;;4926329;28;45473;-66
2024/03/10 07:37:34;;;;;;;;;1.00;1.00;;;;;;;;4925135;28;45386;-66
2024/03/10 07:40:00;;;;;;;;;0.00;0.00;;;;;;;;4911236;28;46898;-67
2024/03/10 07:42:25;;;;;;;;;0.00;0.00;;;;;;;;4917014;28;45387;-66
2024/03/10 07:44:50;;;;;;;;;0.00;0.00;;;;;;;;4920663;28;45581;-66
2024/03/10 07:47:16;;;;;;;;;0.00;0.00;;;;;;;;4938851;28;45669;-66
2024/03/10 07:49:41;;;;;;;;;0.00;0.00;;;;;;;;4912077;28;46269;-66
2024/03/10 07:52:06;;;;;;;;;0.00;0.00;;;;;;;;4930678;28;45352;-66
2024/03/10 07:54:32;;;;;;;;;0.00;0.00;;;;;;;;4943106;28;45477;-66
2024/03/10 07:56:57;;;;;;;;;1.00;1.00;;;;;;;;4935996;28;45449;-66
2024/03/10 07:59:22;;;;;;;;;2.00;1.00;;;;;;;;4924498;28;45431;-66
2024/03/10 08:01:49;;;;;;;;;0.00;0.00;;;;;;;;4912819;28;45784;-66
2024/03/10 08:04:14;;;;;;;;;0.00;0.00;;;;;;;;4939712;28;45336;-66
2024/03/10 08:06:39;;;;;;;;;1.00;1.00;;;;;;;;4932740;28;45363;-66
2024/03/10 08:09:05;;;;;;;;;2.67;1.00;;;;;;;;4923787;28;45264;-66
2024/03/10 08:11:30;;;;;;;;;1.33;0.67;;;;;;;;4923003;28;45296;-66
2024/03/10 08:13:56;;;;;;;;;1.75;1.00;;;;;;;;4933780;28;45303;-66
2024/03/10 08:16:21;;;;;;;;;1.00;1.00;;;;;;;;4929499;28;45536;-66
2024/03/10 08:18:46;;;;;;;;;4.00;4.00;;;;;;;;4909324;28;46091;-66
2024/03/10 08:21:12;;;;;;;;;4.00;3.00;;;;;;;;4924630;28;45499;-66
2024/03/10 08:23:37;;;;;;;;;3.00;3.00;;;;;;;;4921964;28;45398;-66
2024/03/10 08:26:02;;;;;;;;;1.25;1.25;;;;;;;;4917415;28;45442;-67
2024/03/10 08:28:27;;;;;;;;;2.75;2.75;;;;;;;;4918085;28;46944;-66
2024/03/10 08:30:53;;;;;;;;;13.00;13.00;;;;;;;;4924934;28;45792;-66
2024/03/10 08:33:18;;;;;;;;;3.67;3.67;;;;;;;;4917084;28;45375;-66
2024/03/10 08:35:43;;;;;;;;;2.00;2.00;;;;;;;;4912594;28;45374;-66
2024/03/10 08:38:09;;;;;;;;;15.00;10.50;;;;;;;;4913043;28;45535;-66
2024/03/10 08:40:35;;;;;;;;;4.75;3.50;;;;;;;;4914874;28;45335;-66
2024/03/10 08:43:00;;;;;;;;;8.25;5.50;;;;;;;;4916044;28;45715;-66
2024/03/10 08:45:25;;;;;;;;;4.50;4.50;;;;;;;;4914274;28;45607;-66
2024/03/10 08:47:51;;;;;;;;;5.00;5.00;;;;;;;;4914651;28;45525;-66
2024/03/10 08:50:16;;;;;;;;;3.00;3.00;;;;;;;;4897877;28;45883;-66
2024/03/10 08:52:43;;;;;;;;;4.25;4.25;;;;;;;;4910534;28;45568;-66
2024/03/10 08:55:13;;;;;;;;;4.00;2.50;;;;;;;;4914005;28;45549;-66
2024/03/10 08:57:39;;;;;;;;;3.75;2.75;;;;;;;;4912641;28;46397;-66
2024/03/10 09:00:04;;;;;;;;;2.00;2.00;;;;;;;;4913679;28;46551;-66
2024/03/10 09:02:29;;;;;;;;;3.25;3.25;;;;;;;;4913294;28;45822;-66
2024/03/10 09:04:55;;;;;;;;;2.00;2.00;;;;;;;;4913031;28;45483;-66
2024/03/10 09:07:25;;;;;;;;;1.00;1.00;;;;;;;;4911866;28;45452;-66
2024/03/10 09:09:50;;;;;;;;;3.00;2.50;;;;;;;;4911387;28;45772;-66
2024/03/10 09:12:17;;;;;;;;;3.00;2.00;;;;;;;;4912627;28;45579;-66
2024/03/10 09:14:42;;;;;;;;;1.25;1.25;;;;;;;;4913019;28;45603;-66
2024/03/10 09:17:07;;;;;;;;;2.67;2.67;;;;;;;;4914410;28;45981;-66
2024/03/10 09:19:32;;;;;;;;;3.33;3.00;;;;;;;;4913133;28;45514;-66
2024/03/10 09:21:58;;;;;;;;;3.67;2.67;;;;;;;;4915422;28;46865;-67
2024/03/10 09:24:24;;;;;;;;;1.00;1.00;;;;;;;;4915673;28;45453;-66
2024/03/10 09:26:49;;;;;;;;;2.00;2.00;;;;;;;;4913244;28;46249;-66
2024/03/10 09:29:14;;;;;;;;;2.00;2.00;;;;;;;;4914475;28;46764;-66
2024/03/10 09:31:41;;;;;;;;;3.67;2.33;;;;;;;;4912128;28;45513;-66
2024/03/10 09:34:06;;;;;;;;;3.25;3.25;;;;;;;;4914981;28;45493;-66
2024/03/10 09:36:31;;;;;;;;;4.75;4.00;;;;;;;;4913447;28;46298;-66
2024/03/10 09:38:59;;;;;;;;;2.75;2.75;;;;;;;;4912235;28;45634;-67
2024/03/10 09:41:27;;;;;;;;;3.00;3.00;;;;;;;;4911782;28;45513;-66
2024/03/10 09:43:55;;;;;;;;;4.00;3.00;;;;;;;;4896103;28;45597;-67
2024/03/10 09:46:21;;;;;;;;;4.00;3.25;;;;;;;;4913312;28;46899;-67
2024/03/10 09:48:47;;;;;;;;;3.00;3.00;;;;;;;;4910931;28;45699;-66
2024/03/10 09:51:13;;;;;;;;;2.75;2.75;;;;;;;;4913066;28;46099;-67
2024/03/10 09:53:40;;;;;;;;;4.00;3.50;;;;;;;;4911063;28;45786;-66
2024/03/10 09:56:07;;;;;;;;;4.00;4.00;;;;;;;;4913383;28;47016;-67
2024/03/10 09:58:45;;;;;;;;;2.50;2.50;;;;;;;;4911923;28;47126;-66
2024/03/10 10:01:13;;;;;;;;;3.00;3.00;;;;;;;;4912154;28;47138;-67
2024/03/10 10:03:49;;;;;;;;;4.75;4.75;;;;;;;;4913525;28;46416;-66
2024/03/10 10:06:16;;;;;;;;;4.50;4.50;;;;;;;;4915990;28;45502;-67
2024/03/10 10:08:42;;;;;;;;;3.50;3.50;;;;;;;;4910694;28;47103;-66
2024/03/10 10:11:08;;;;;;;;;3.50;3.50;;;;;;;;4912700;28;45950;-66
2024/03/10 10:13:33;;;;;;;;;5.50;5.50;;;;;;;;4927517;28;45402;-66
2024/03/10 10:15:59;;;;;;;;;3.25;3.25;;;;;;;;4925034;28;46137;-66
2024/03/10 10:18:27;;;;;;;;;5.00;4.25;;;;;;;;4921171;28;45342;-66
2024/03/10 10:20:53;;;;;;;;;5.25;4.00;;;;;;;;4921997;28;45310;-66
2024/03/10 10:23:23;;;;;;;;;5.75;4.00;;;;;;;;4932632;28;45350;-66
2024/03/10 10:25:51;;;;;;;;;6.00;6.00;;;;;;;;4921736;28;45624;-66
2024/03/10 10:28:17;;;;;;;;;5.25;4.75;;;;;;;;4923971;28;45620;-67
2024/03/10 10:30:42;;;;;;;;;6.50;6.50;;;;;;;;4920182;28;45326;-65
2024/03/10 10:33:08;;;;;;;;;6.00;6.00;;;;;;;;4938389;28;45527;-67
2024/03/10 10:35:34;;;;;;;;;9.25;6.25;;;;;;;;4922680;28;46196;-67
2024/03/10 10:38:12;;;;;;;;;6.00;5.00;;;;;;;;4918928;28;45682;-67
2024/03/10 10:40:41;;;;;;;;;5.25;5.25;;;;;;;;4914655;28;45613;-67
2024/03/10 10:43:06;;;;;;;;;6.00;6.00;;;;;;;;4921035;28;45399;-66
2024/03/10 10:45:35;;;;;;;;;7.25;4.00;;;;;;;;4921008;28;46567;-67
2024/03/10 10:48:01;;;;;;;;;5.00;3.50;;;;;;;;4920662;28;45250;-67
2024/03/10 10:50:31;;;;;;;;;6.00;6.00;;;;;;;;4919747;28;45785;-66
2024/03/10 10:52:56;;;;;;;;;5.00;5.00;;;;;;;;4917892;28;45410;-67
2024/03/10 10:55:21;;;;;;;;;7.00;5.00;;;;;;;;4920572;28;46044;-67
2024/03/10 10:57:47;;;;;;;;;8.75;8.75;;;;;;;;4920781;28;45478;-66
2024/03/10 11:00:17;;;;;;;;;6.75;6.75;;;;;;;;4920952;28;45381;-67
2024/03/10 11:02:44;;;;;;;;;9.00;7.25;;;;;;;;4920706;28;45576;-66
2024/03/10 11:05:09;;;;;;;;;6.50;6.50;;;;;;;;4920861;28;46343;-66
2024/03/10 11:07:35;;;;;;;;;9.00;9.00;;;;;;;;4921033;28;45625;-68
2024/03/10 11:10:22;;;;;;;;;4.75;4.75;;;;;;;;4926048;28;45809;-68
2024/03/10 11:12:47;;;;;;;;;4.50;4.00;;;;;;;;4916909;28;45514;-67
2024/03/10 11:15:15;;;;;;;;;5.00;5.00;;;;;;;;4926058;28;46330;-68
2024/03/10 11:17:45;;;;;;;;;4.50;4.00;;;;;;;;4928732;28;45793;-67
2024/03/10 11:20:10;;;;;;;;;4.75;4.75;;;;;;;;4922253;28;45509;-68
2024/03/10 11:22:50;;;;;;;;;4.75;4.75;;;;;;;;4934269;28;45904;-67
2024/03/10 11:25:16;;;;;;;;;7.25;6.00;;;;;;;;4926970;28;46217;-67
2024/03/10 11:27:45;;;;;;;;;4.25;4.25;;;;;;;;4921509;28;45476;-67
2024/03/10 11:30:31;;;;;;;;;7.25;6.00;;;;;;;;4925259;28;45705;-67
2024/03/10 11:33:05;;;;;;;;;6.25;6.25;;;;;;;;4925037;28;45576;-68
2024/03/10 11:35:31;;;;;;;;;10.00;8.50;;;;;;;;4923914;28;46272;-67
2024/03/10 11:37:59;;;;;;;;;5.33;5.33;;;;;;;;4915763;28;45487;-66
2024/03/10 11:40:30;;;;;;;;;7.00;6.00;;;;;;;;4925937;28;45502;-65
2024/03/10 11:42:56;;;;;;;;;9.00;7.00;;;;;;;;4932099;28;45866;-69
2024/03/10 11:45:22;;;;;;;;;7.00;7.00;;;;;;;;4928181;28;46653;-66
2024/03/10 11:47:47;;;;;;;;;6.00;6.00;;;;;;;;4929549;28;45533;-66
2024/03/10 11:50:14;;;;;;;;;9.00;6.67;;;;;;;;4919028;28;45966;-66
2024/03/10 11:52:39;;;;;;;;;9.25;9.25;;;;;;;;4919895;28;45869;-66
2024/03/10 11:55:10;;;;;;;;;9.00;7.00;;;;;;;;4919765;28;46296;-66
2024/03/10 11:57:36;;;;;;;;;8.00;5.50;;;;;;;;4919611;28;45733;-66
2024/03/10 12:00:04;;;;;;;;;6.33;6.33;;;;;;;;4919554;28;45422;-66
2024/03/10 12:02:30;;;;;;;;;10.75;9.75;;;;;;;;4919836;28;45605;-66
2024/03/10 12:04:55;;;;;;;;;5.75;5.75;;;;;;;;4919253;28;45720;-66
2024/03/10 12:07:21;;;;;;;;;10.00;9.00;;;;;;;;4919232;28;45479;-66
2024/03/10 12:09:46;;;;;;;;;5.00;5.00;;;;;;;;4921023;28;45826;-65
2024/03/10 12:12:13;;;;;;;;;6.67;6.67;;;;;;;;4928890;28;45719;-66
2024/03/10 12:14:41;;;;;;;;;4.00;4.00;;;;;;;;4922794;28;45570;-65
2024/03/10 12:17:13;;;;;;;;;10.75;9.75;;;;;;;;4916119;28;45482;-65
2024/03/10 12:19:39;;;;;;;;;7.75;7.75;;;;;;;;4927845;28;45776;-65
2024/03/10 12:22:05;;;;;;;;;9.00;6.50;;;;;;;;4923964;28;45829;-66
2024/03/10 12:24:30;;;;;;;;;6.25;6.25;;;;;;;;4920829;28;46703;-65
2024/03/10 12:26:55;;;;;;;;;7.25;7.25;;;;;;;;4929166;28;45504;-66
2024/03/10 12:29:21;;;;;;;;;10.00;7.00;;;;;;;;4923712;28;45519;-66
2024/03/10 12:31:48;;;;;;;;;6.25;6.25;;;;;;;;4924319;28;45860;-66
2024/03/10 12:34:13;;;;;;;;;9.25;9.00;;;;;;;;4925385;28;45869;-66
2024/03/10 12:36:38;;;;;;;;;6.33;6.33;;;;;;;;4926117;28;45715;-67
2024/03/10 12:39:11;;;;;;;;;5.67;5.67;;;;;;;;4925472;28;45718;-66
2024/03/10 12:41:36;;;;;;;;;8.25;8.25;;;;;;;;4925367;28;45770;-66
2024/03/10 12:44:01;;;;;;;;;5.00;5.00;;;;;;;;4919042;28;45814;-66
2024/03/10 12:46:28;;;;;;;;;6.75;5.50;;;;;;;;4919376;28;45663;-66
2024/03/10 12:48:53;;;;;;;;;6.25;6.25;;;;;;;;4928561;28;45705;-66
2024/03/10 12:51:19;;;;;;;;;6.33;6.33;;;;;;;;4924006;28;45568;-66
2024/03/10 12:53:45;;;;;;;;;6.00;6.00;;;;;;;;4927821;28;46298;-65
2024/03/10 12:56:12;;;;;;;;;5.00;4.75;;;;;;;;4930152;28;45504;-66
2024/03/10 12:58:38;;;;;;;;;5.50;5.50;;;;;;;;4926619;28;45906;-66
2024/03/10 13:01:03;;;;;;;;;5.50;4.50;;;;;;;;4922598;28;45501;-66
2024/03/10 13:03:29;;;;;;;;;4.00;4.00;;;;;;;;4924675;28;46657;-66
2024/03/10 13:05:55;;;;;;;;;4.00;4.00;;;;;;;;4921057;28;45505;-66
2024/03/10 13:08:20;;;;;;;;;9.50;5.75;;;;;;;;4921537;28;45402;-66
2024/03/10 13:10:46;;;;;;;;;6.00;6.00;;;;;;;;4922489;28;45466;-66
2024/03/10 13:13:12;;;;;;;;;6.00;5.25;;;;;;;;4908694;28;47412;-67
2024/03/10 13:15:37;;;;;;;;;5.25;3.25;;;;;;;;4938533;28;45345;-66
2024/03/10 13:18:13;;;;;;;;;4.75;4.75;;;;;;;;4930560;28;45516;-67
2024/03/10 13:20:39;;;;;;;;;5.75;5.75;;;;;;;;4927520;28;45367;-65
2024/03/10 13:23:07;;;;;;;;;4.50;4.50;;;;;;;;4920227;28;46258;-66
2024/03/10 13:25:32;;;;;;;;;10.25;6.75;;;;;;;;4924703;28;45390;-66
2024/03/10 13:27:58;;;;;;;;;5.00;5.00;;;;;;;;4927071;28;45383;-66
2024/03/10 13:30:25;;;;;;;;;5.00;5.00;;;;;;;;4918069;28;45520;-66
2024/03/10 13:32:50;;;;;;;;;7.75;7.00;;;;;;;;4926508;28;45994;-67
2024/03/10 13:35:17;;;;;;;;;7.00;7.00;;;;;;;;4937356;28;45530;-69
2024/03/10 13:37:46;;;;;;;;;8.00;6.75;;;;;;;;4925830;28;45393;-69
2024/03/10 13:40:11;;;;;;;;;8.50;7.75;;;;;;;;4929171;28;45568;-66
2024/03/10 13:42:37;;;;;;;;;6.75;5.50;;;;;;;;4922437;28;46778;-68
2024/03/10 13:45:05;;;;;;;;;7.50;6.25;;;;;;;;4923641;28;45377;-68
2024/03/10 13:47:30;;;;;;;;;6.75;5.50;;;;;;;;4923098;28;45515;-70
2024/03/10 13:49:55;;;;;;;;;4.25;4.00;;;;;;;;4925270;28;45413;-69
2024/03/10 13:52:21;;;;;;;;;7.67;6.33;;;;;;;;4934840;28;45618;-68
2024/03/10 13:54:46;;;;;;;;;5.00;5.00;;;;;;;;4929921;28;45415;-76
2024/03/10 13:57:12;;;;;;;;;6.75;5.50;;;;;;;;4929350;28;45545;-70
2024/03/10 13:59:38;;;;;;;;;9.00;8.00;;;;;;;;4922565;28;45455;-66
2024/03/10 14:02:04;;;;;;;;;8.00;8.00;;;;;;;;4922330;28;45359;-67
2024/03/10 14:04:29;;;;;;;;;5.00;5.00;;;;;;;;4922445;28;46363;-65
2024/03/10 14:06:54;;;;;;;;;6.00;6.00;;;;;;;;4924519;28;45394;-66
2024/03/10 14:09:20;;;;;;;;;6.00;6.00;;;;;;;;4926678;28;45399;-68
2024/03/10 14:11:45;;;;;;;;;3.50;3.50;;;;;;;;4905171;28;47075;-68
2024/03/10 14:14:11;;;;;;;;;5.67;5.67;;;;;;;;4918850;28;45383;-68
2024/03/10 14:16:36;;;;;;;;;5.00;5.00;;;;;;;;4918221;28;45423;-68
2024/03/10 14:19:01;;;;;;;;;3.67;3.67;;;;;;;;4927121;28;45474;-68
2024/03/10 14:21:26;;;;;;;;;2.67;2.67;;;;;;;;4929882;28;46041;-68
2024/03/10 14:23:52;;;;;;;;;2.00;2.00;;;;;;;;4922165;28;45734;-67
2024/03/10 14:26:18;;;;;;;;;2.50;1.75;;;;;;;;4920267;28;45370;-67
2024/03/10 14:28:44;;;;;;;;;2.50;2.50;;;;;;;;4918148;28;45509;-67
2024/03/10 14:31:10;;;;;;;;;3.50;3.50;;;;;;;;4916158;28;46446;-67
2024/03/10 14:33:35;;;;;;;;;1.50;1.00;;;;;;;;4916503;28;45732;-67
2024/03/10 14:36:01;;;;;;;;;2.75;2.75;;;;;;;;4916421;28;45727;-67
2024/03/10 14:38:27;;;;;;;;;3.50;3.00;;;;;;;;4917799;28;45675;-67
2024/03/10 14:40:52;;;;;;;;;3.75;3.75;;;;;;;;4906859;28;47532;-67
2024/03/10 14:43:19;;;;;;;;;3.00;3.00;;;;;;;;4929748;28;45521;-67
2024/03/10 14:45:45;;;;;;;;;3.25;2.75;;;;;;;;4916757;28;45457;-67
2024/03/10 14:48:10;;;;;;;;;5.50;3.50;;;;;;;;4927877;28;45562;-67
2024/03/10 14:50:37;;;;;;;;;12.25;11.50;;;;;;;;4916908;28;45717;-67
2024/03/10 14:53:02;;;;;;;;;6.00;6.00;;;;;;;;4919052;28;45502;-67
2024/03/10 14:55:28;;;;;;;;;5.00;5.00;;;;;;;;4932907;28;45614;-67
2024/03/10 14:57:53;;;;;;;;;5.33;4.33;;;;;;;;4928998;28;45456;-67
2024/03/10 15:03:05;;;;;;;;;4.75;4.75;;;;;;;;4922424;28;45493;-67